Terminal Aerodrome Forecast
Issued by NWS

Home | Current Version | Previous Version | Text Only | Print | Product List | Glossary On
Versions: 1 2 3 4 5 6 7 8 9 10 11 12 13 14 15 16 17 18 19 20 21 22 23 24
000
FTUS43 KLSX 220900 AAA
TAFCPS
TAF AMD
KCPS 220908Z 2209/2306 13009KT P6SM VCSH OVC050
     FM221200 14010KT P6SM VCSH OVC025
     FM221400 14012KT 4SM -RA BR OVC015
     FM221600 14012KT 2SM -RA BR OVC008
     FM230400 21012KT P6SM OVC025=

USA.gov is the U.S. government's official web portal to all federal, state and local government web resources and services.